Flight Track Log - Related Links

Times and Time Zones

All times are in EDT time to prevent confusion due to time zone crossing. See the RPA3161 flight status page for this flight to view local times or setup timezone preferences in your user account.

Time Position Orientation Groundspeed Altitude Reporting Facility
EDT Latitude Longitude Course Direction KTS MPH feet Rate Location/Type
Sun 12:12:12 PM 44.4114 -73.1056 195° South 210 242 3,200  Level Boston Center
Sun 12:13:00 PM 44.1842 -73.2560 195° South  Level FlightAware Approximate
Sun 12:13:12 PM 44.3697 -73.1081 182° South 235 270 5,100  Level Boston Center
Sun 12:14:00 PM 44.0895 -73.2915 195° South  Level FlightAware Approximate
Sun 12:14:12 PM 44.2778 -73.1506 198° South 263 303 9,200  Level Boston Center
Sun 12:15:00 PM 43.9942 -73.3242 194° South  Level FlightAware Approximate
Sun 12:15:12 PM 44.2006 -73.1842 197° South 287 330 11,500  Level Boston Center
Sun 12:16:00 PM 43.8990 -73.3567 195° South  Level FlightAware Approximate
Sun 12:16:12 PM 44.1150 -73.2236 198° South 315 362 14,300  Level Boston Center
Sun 12:17:00 PM 43.8043 -73.3923 195° South  Level FlightAware Approximate
Sun 12:17:12 PM 44.0292 -73.2775 204° Southwest 329 379 16,700  Level Boston Center
Sun 12:18:12 PM 43.9411 -73.3367 206° Southwest 344 396 18,600 2,050 Climbing Boston Center
Sun 12:19:12 PM 43.8489 -73.3986 206° Southwest 356 410 20,800 2,100 Climbing Boston Center
Sun 12:20:12 PM 43.7525 -73.4606 205° Southwest 368 423 22,800 2,050 Climbing Boston Center
Sun 12:21:12 PM 43.6481 -73.4989 195° South 386 444 24,900 1,850 Climbing Boston Center
Sun 12:22:12 PM 43.5414 -73.5369 195° South 392 451 26,500 1,550 Climbing Boston Center
Sun 12:23:12 PM 43.4306 -73.5750 194° South 403 464 28,000 1,300 Climbing Boston Center
Sun 12:24:12 PM 43.3406 -73.6019 192° South 409 471 29,100 1,000 Climbing Boston Center
Sun 12:25:12 PM 43.2025 -73.6506 194° South 414 476 30,000 450 Climbing Boston Center
Sun 12:26:12 PM 43.0981 -73.6883 195° South 419 482 30,000  Level Boston Center
Sun 12:27:12 PM 42.9831 -73.7258 193° South 425 489 30,000  Level Boston Center
Sun 12:28:12 PM 42.8700 -73.7631 194° South 425 489 30,000  Level Boston Center
Sun 12:29:12 PM 42.7528 -73.8003 193° South 425 489 30,000  Level Boston Center
Sun 12:30:24 PM 42.6319 -73.7889 176° South 431 496 30,000  Level Boston Center
Sun 12:31:24 PM 42.4803 -73.7661 174° South 425 489 30,000  Level Boston Center
Sun 12:32:24 PM 42.3575 -73.7467 173° South 436 502 30,000  Level Boston Center
Sun 12:33:24 PM 42.2347 -73.7300 174° South 442 509 30,000  Level Boston Center
Sun 12:34:24 PM 42.1119 -73.7106 173° South 442 509 30,000  Level Boston Center
Sun 12:35:24 PM 41.9914 -73.6914 173° South 442 509 30,000  Level Boston Center
Sun 12:36:24 PM 41.8664 -73.6750 174° South 447 514 30,000  Level Boston Center
Sun 12:37:24 PM 41.7436 -73.6558 173° South 447 514 30,000  Level Boston Center
Sun 12:38:24 PM 41.6189 -73.6369 174° South 447 514 30,000  Level Boston Center
Sun 12:39:24 PM 41.5086 -73.6156 172° South 447 514 30,000 -35 Level Boston Center
Sun 12:41:16 PM 41.2961 -73.6956 196° South 403 464 29,900  Descending New York Center
Sun 12:42:17 PM 41.2206 -73.8025 227° Southwest 397 457 30,000 49 Climbing New York Center
Sun 12:43:19 PM 41.1406 -73.9147 227° Southwest 404 465 30,000  Level New York Center
Sun 12:44:16 PM 41.0628 -74.0239 227° Southwest 410 472 30,000  Level New York Center
Sun 12:45:17 PM 40.9867 -74.1356 228° Southwest 417 480 30,000  Level New York Center
Sun 12:46:18 PM 40.9064 -74.2414 225° Southwest 411 473 30,000 -655 Level New York Center
Sun 12:47:16 PM 40.8242 -74.3497 225° Southwest 411 473 28,700 -1,008 Descending New York Center
Sun 12:48:17 PM 40.7542 -74.4583 230° Southwest 406 467 28,000 -344 Descending New York Center
Sun 12:49:18 PM 40.6881 -74.5697 232° Southwest 401 461 28,000  Level New York Center
Sun 12:50:18 PM 40.6197 -74.6808 231° Southwest 395 455 28,000  Level New York Center
Sun 12:51:16 PM 40.5494 -74.7886 229° Southwest 390 449 28,000  Level New York Center
Sun 12:52:17 PM 40.4750 -74.8933 227° Southwest 390 449 28,000 -492 Level New York Center
Sun 12:53:18 PM 40.4006 -74.9981 227° Southwest 396 456 27,000 -1,140 Descending New York Center
Sun 12:54:18 PM 40.3300 -75.1000 228° Southwest 396 456 25,700 -1,322 Descending New York Center
Sun 12:55:16 PM 40.2617 -75.1989 228° Southwest 396 456 24,400 -1,311 Descending New York Center
Sun 12:56:17 PM 40.1981 -75.2847 226° Southwest 386 444 23,100 -1,180 Descending New York Center
Sun 12:57:18 PM 40.1319 -75.3781 227° Southwest 373 429 22,000 -545 Descending New York Center
Sun 12:58:18 PM 40.0656 -75.4742 228° Southwest 363 418 22,000  Level New York Center
Sun 12:59:19 PM 39.9953 -75.5669 225° Southwest 363 418 22,000  Level New York Center
Sun 01:00:16 PM 39.9286 -75.6625 228° Southwest 358 412 22,000  Level New York Center
Sun 01:01:16 PM 39.8767 -75.7617 236° Southwest 350 403 22,000  Level New York Center
Sun 01:02:17 PM 39.8222 -75.8606 234° Southwest 342 394 22,000 -149 Level New York Center
Sun 01:03:17 PM 39.7928 -75.9664 250° West 336 387 21,700 -843 Descending New York Center
Sun 01:04:18 PM 39.8150 -76.0761 285° West 306 352 20,300 -1,412 Descending New York Center
Sun 01:05:16 PM 39.8281 -76.1961 278° West 312 359 18,900 -1,311 Descending New York Center
Sun 01:06:17 PM 39.7664 -76.2697 223° Southwest 267 307 17,700 -1,450 Descending New York Center
Sun 01:07:16 PM 39.6856 -76.3067 199° South 284 327 16,000 -1,629 Descending New York Center
Sun 01:08:37 PM 39.5833 -76.3500 198° South 298 343 13,900 -1,510 Descending Potomac TRACON
Sun 01:09:43 PM 39.5333 -76.4333 232° Southwest 297 342 12,300 -950 Descending Potomac TRACON
Sun 01:10:37 PM 39.5167 -76.5333 258° West 293 337 12,000 -158 Descending Potomac TRACON
Sun 01:11:37 PM 39.4500 -76.5667 201° Southwest 280 322 12,000  Level Potomac TRACON
Sun 01:12:37 PM 39.3667 -76.5833 189° South 282 325 12,000 -200 Level Potomac TRACON
Sun 01:13:37 PM 39.3000 -76.6167 201° Southwest 283 326 11,600 -694 Descending Potomac TRACON
Sun 01:14:38 PM 39.2167 -76.6500 197° South 274 315 10,600 -793 Descending Potomac TRACON
Sun 01:15:38 PM 39.1500 -76.7000 210° Southwest 280 322 10,000 -470 Descending Potomac TRACON
Sun 01:16:33 PM 39.1333 -76.7667 252° West 277 319 9,700 -992 Descending Potomac TRACON
Sun 01:17:39 PM 39.1167 -76.8833 260° West 271 312 8,000 -898 Descending Potomac TRACON
Sun 01:18:40 PM 39.0833 -76.9667 243° Southwest 267 307 7,800 -1,041 Descending Potomac TRACON
Sun 01:19:40 PM 39.0500 -77.0500 243° Southwest 252 290 5,900 -2,053 Descending Potomac TRACON
Sun 01:20:34 PM 39.0167 -77.1167 237° Southwest 246 283 3,900 -1,670 Descending Potomac TRACON
Sun 01:21:35 PM 38.9667 -77.1500 207° Southwest 221 254 2,700 -1,180 Descending Potomac TRACON

Login

Don't have an account? Register now (free) for customized features, flight alerts, and more!